sensor_id;sensor_type;location;lat;lon;timestamp;P1;durP1;ratioP1;P2;durP2;ratioP2
28166;SDS011;15455;53.376;-6.262;2022-11-04T00:01:26;16.73;;;3.85;;
28166;SDS011;15455;53.376;-6.262;2022-11-04T00:04:13;10.75;;;3.70;;
28166;SDS011;15455;53.376;-6.262;2022-11-04T00:07:00;9.02;;;3.97;;
28166;SDS011;15455;53.376;-6.262;2022-11-04T00:09:46;13.68;;;4.43;;
28166;SDS011;15455;53.376;-6.262;2022-11-04T00:12:31;9.80;;;3.40;;
28166;SDS011;15455;53.376;-6.262;2022-11-04T00:15:17;11.05;;;3.80;;
28166;SDS011;15455;53.376;-6.262;2022-11-04T00:18:21;18.23;;;4.28;;
28166;SDS011;15455;53.376;-6.262;2022-11-04T00:21:06;11.32;;;3.92;;
28166;SDS011;15455;53.376;-6.262;2022-11-04T00:24:11;12.27;;;4.13;;
28166;SDS011;15455;53.376;-6.262;2022-11-04T00:27:17;12.23;;;4.38;;
28166;SDS011;15455;53.376;-6.262;2022-11-04T00:30:23;14.13;;;4.43;;
28166;SDS011;15455;53.376;-6.262;2022-11-04T00:33:08;13.52;;;4.00;;
28166;SDS011;15455;53.376;-6.262;2022-11-04T00:36:12;9.32;;;3.90;;
28166;SDS011;15455;53.376;-6.262;2022-11-04T00:38:57;10.90;;;3.88;;
28166;SDS011;15455;53.376;-6.262;2022-11-04T00:41:43;15.50;;;4.03;;
28166;SDS011;15455;53.376;-6.262;2022-11-04T00:44:28;15.38;;;4.63;;
28166;SDS011;15455;53.376;-6.262;2022-11-04T00:47:13;12.70;;;3.80;;
28166;SDS011;15455;53.376;-6.262;2022-11-04T00:49:59;9.48;;;3.65;;
28166;SDS011;15455;53.376;-6.262;2022-11-04T00:52:45;11.23;;;4.35;;
28166;SDS011;15455;53.376;-6.262;2022-11-04T00:55:30;11.38;;;4.18;;
28166;SDS011;15455;53.376;-6.262;2022-11-04T00:58:16;9.18;;;3.95;;
28166;SDS011;15455;53.376;-6.262;2022-11-04T01:01:08;12.98;;;4.68;;
28166;SDS011;15455;53.376;-6.262;2022-11-04T01:03:55;20.02;;;4.45;;
28166;SDS011;15455;53.376;-6.262;2022-11-04T01:06:41;13.23;;;3.38;;
28166;SDS011;15455;53.376;-6.262;2022-11-04T01:09:26;12.38;;;5.47;;
28166;SDS011;15455;53.376;-6.262;2022-11-04T01:12:12;15.88;;;4.50;;
28166;SDS011;15455;53.376;-6.262;2022-11-04T01:14:58;13.48;;;4.75;;
28166;SDS011;15455;53.376;-6.262;2022-11-04T01:17:44;6.95;;;3.63;;
28166;SDS011;15455;53.376;-6.262;2022-11-04T01:20:30;10.18;;;5.00;;
28166;SDS011;15455;53.376;-6.262;2022-11-04T01:23:17;10.63;;;4.13;;
28166;SDS011;15455;53.376;-6.262;2022-11-04T01:26:06;13.00;;;4.97;;
28166;SDS011;15455;53.376;-6.262;2022-11-04T01:28:56;11.43;;;4.18;;
28166;SDS011;15455;53.376;-6.262;2022-11-04T01:31:42;14.85;;;5.93;;
28166;SDS011;15455;53.376;-6.262;2022-11-04T01:34:28;13.82;;;4.68;;
28166;SDS011;15455;53.376;-6.262;2022-11-04T01:37:13;17.67;;;4.28;;
28166;SDS011;15455;53.376;-6.262;2022-11-04T01:39:59;10.98;;;4.45;;
28166;SDS011;15455;53.376;-6.262;2022-11-04T01:42:44;14.88;;;4.60;;
28166;SDS011;15455;53.376;-6.262;2022-11-04T01:45:29;12.77;;;5.40;;
28166;SDS011;15455;53.376;-6.262;2022-11-04T01:48:19;11.95;;;4.25;;
28166;SDS011;15455;53.376;-6.262;2022-11-04T01:51:16;10.13;;;4.32;;
28166;SDS011;15455;53.376;-6.262;2022-11-04T01:54:02;10.85;;;3.80;;
28166;SDS011;15455;53.376;-6.262;2022-11-04T01:56:50;13.77;;;4.05;;
28166;SDS011;15455;53.376;-6.262;2022-11-04T01:59:38;18.73;;;3.95;;
28166;SDS011;15455;53.376;-6.262;2022-11-04T02:02:24;14.85;;;5.35;;
28166;SDS011;15455;53.376;-6.262;2022-11-04T02:05:10;9.15;;;4.55;;
28166;SDS011;15455;53.376;-6.262;2022-11-04T02:07:57;9.30;;;4.35;;
28166;SDS011;15455;53.376;-6.262;2022-11-04T02:10:51;9.52;;;4.07;;
28166;SDS011;15455;53.376;-6.262;2022-11-04T02:13:45;15.68;;;3.92;;
28166;SDS011;15455;53.376;-6.262;2022-11-04T02:25:56;13.48;;;5.65;;
28166;SDS011;15455;53.376;-6.262;2022-11-04T02:35:07;9.70;;;4.40;;
28166;SDS011;15455;53.376;-6.262;2022-11-04T02:38:09;7.68;;;4.10;;
28166;SDS011;15455;53.376;-6.262;2022-11-04T02:44:34;13.15;;;5.28;;
28166;SDS011;15455;53.376;-6.262;2022-11-04T02:47:27;14.80;;;4.32;;
28166;SDS011;15455;53.376;-6.262;2022-11-04T02:50:27;15.10;;;4.07;;
28166;SDS011;15455;53.376;-6.262;2022-11-04T02:53:28;17.10;;;4.68;;
28166;SDS011;15455;53.376;-6.262;2022-11-04T02:56:19;8.65;;;4.50;;
28166;SDS011;15455;53.376;-6.262;2022-11-04T02:59:08;11.90;;;5.35;;
28166;SDS011;15455;53.376;-6.262;2022-11-04T03:01:58;17.67;;;4.45;;
28166;SDS011;15455;53.376;-6.262;2022-11-04T03:04:48;6.15;;;3.42;;
28166;SDS011;15455;53.376;-6.262;2022-11-04T03:07:37;16.05;;;3.90;;
28166;SDS011;15455;53.376;-6.262;2022-11-04T03:10:29;11.15;;;4.70;;
28166;SDS011;15455;53.376;-6.262;2022-11-04T03:16:39;15.77;;;4.45;;
28166;SDS011;15455;53.376;-6.262;2022-11-04T03:22:42;11.32;;;4.43;;
28166;SDS011;15455;53.376;-6.262;2022-11-04T03:25:30;15.88;;;4.43;;
28166;SDS011;15455;53.376;-6.262;2022-11-04T03:28:23;8.07;;;3.22;;
28166;SDS011;15455;53.376;-6.262;2022-11-04T03:31:33;5.07;;;2.92;;
28166;SDS011;15455;53.376;-6.262;2022-11-04T03:34:45;7.72;;;2.80;;
28166;SDS011;15455;53.376;-6.262;2022-11-04T03:37:32;10.32;;;3.03;;
28166;SDS011;15455;53.376;-6.262;2022-11-04T03:40:18;11.60;;;3.63;;
28166;SDS011;15455;53.376;-6.262;2022-11-04T03:43:17;6.55;;;3.28;;
28166;SDS011;15455;53.376;-6.262;2022-11-04T03:46:12;18.48;;;3.42;;
28166;SDS011;15455;53.376;-6.262;2022-11-04T03:48:57;4.25;;;2.53;;
28166;SDS011;15455;53.376;-6.262;2022-11-04T03:51:44;7.85;;;2.95;;
28166;SDS011;15455;53.376;-6.262;2022-11-04T03:54:30;7.32;;;3.75;;
28166;SDS011;15455;53.376;-6.262;2022-11-04T04:00:45;8.27;;;3.10;;
28166;SDS011;15455;53.376;-6.262;2022-11-04T04:03:39;6.70;;;2.83;;
28166;SDS011;15455;53.376;-6.262;2022-11-04T04:06:32;6.63;;;3.08;;
28166;SDS011;15455;53.376;-6.262;2022-11-04T04:09:24;9.90;;;2.85;;
28166;SDS011;15455;53.376;-6.262;2022-11-04T04:12:29;6.80;;;2.78;;
28166;SDS011;15455;53.376;-6.262;2022-11-04T04:15:21;7.18;;;3.10;;
28166;SDS011;15455;53.376;-6.262;2022-11-04T04:18:12;3.97;;;2.50;;
28166;SDS011;15455;53.376;-6.262;2022-11-04T04:21:02;12.82;;;3.25;;
28166;SDS011;15455;53.376;-6.262;2022-11-04T04:23:51;5.50;;;3.10;;
28166;SDS011;15455;53.376;-6.262;2022-11-04T04:26:58;6.18;;;2.72;;
28166;SDS011;15455;53.376;-6.262;2022-11-04T04:30:05;6.15;;;2.83;;
28166;SDS011;15455;53.376;-6.262;2022-11-04T04:33:06;8.93;;;3.28;;
28166;SDS011;15455;53.376;-6.262;2022-11-04T04:35:55;6.60;;;2.85;;
28166;SDS011;15455;53.376;-6.262;2022-11-04T04:38:41;8.27;;;4.28;;
28166;SDS011;15455;53.376;-6.262;2022-11-04T04:41:46;7.10;;;2.67;;
28166;SDS011;15455;53.376;-6.262;2022-11-04T04:44:51;7.18;;;3.17;;
28166;SDS011;15455;53.376;-6.262;2022-11-04T04:47:46;8.65;;;3.08;;
28166;SDS011;15455;53.376;-6.262;2022-11-04T04:50:34;5.80;;;2.97;;
28166;SDS011;15455;53.376;-6.262;2022-11-04T04:53:22;4.07;;;2.63;;
28166;SDS011;15455;53.376;-6.262;2022-11-04T04:56:07;10.75;;;2.88;;
28166;SDS011;15455;53.376;-6.262;2022-11-04T04:58:53;8.23;;;3.03;;
28166;SDS011;15455;53.376;-6.262;2022-11-04T05:01:39;8.32;;;3.08;;
28166;SDS011;15455;53.376;-6.262;2022-11-04T05:04:25;11.20;;;3.10;;
28166;SDS011;15455;53.376;-6.262;2022-11-04T05:07:10;7.30;;;2.78;;
28166;SDS011;15455;53.376;-6.262;2022-11-04T05:09:56;9.43;;;2.75;;
28166;SDS011;15455;53.376;-6.262;2022-11-04T05:12:42;7.15;;;3.08;;
28166;SDS011;15455;53.376;-6.262;2022-11-04T05:15:46;6.63;;;2.47;;
28166;SDS011;15455;53.376;-6.262;2022-11-04T05:18:32;12.55;;;3.72;;
28166;SDS011;15455;53.376;-6.262;2022-11-04T05:21:18;12.13;;;3.35;;
28166;SDS011;15455;53.376;-6.262;2022-11-04T05:24:03;5.35;;;2.72;;
28166;SDS011;15455;53.376;-6.262;2022-11-04T05:26:49;6.18;;;2.55;;
28166;SDS011;15455;53.376;-6.262;2022-11-04T05:29:35;5.75;;;3.03;;
28166;SDS011;15455;53.376;-6.262;2022-11-04T05:32:20;9.43;;;2.78;;
28166;SDS011;15455;53.376;-6.262;2022-11-04T05:35:05;5.20;;;3.33;;
28166;SDS011;15455;53.376;-6.262;2022-11-04T05:37:51;7.05;;;2.83;;
28166;SDS011;15455;53.376;-6.262;2022-11-04T05:40:38;8.00;;;2.60;;
28166;SDS011;15455;53.376;-6.262;2022-11-04T05:43:24;11.07;;;2.53;;
28166;SDS011;15455;53.376;-6.262;2022-11-04T05:46:09;10.30;;;3.03;;
28166;SDS011;15455;53.376;-6.262;2022-11-04T05:48:54;8.13;;;2.65;;
28166;SDS011;15455;53.376;-6.262;2022-11-04T05:51:40;7.50;;;3.03;;
28166;SDS011;15455;53.376;-6.262;2022-11-04T05:54:25;8.27;;;3.45;;
28166;SDS011;15455;53.376;-6.262;2022-11-04T05:57:11;5.03;;;2.38;;
28166;SDS011;15455;53.376;-6.262;2022-11-04T05:59:57;11.15;;;3.63;;
28166;SDS011;15455;53.376;-6.262;2022-11-04T06:02:42;13.63;;;3.97;;
28166;SDS011;15455;53.376;-6.262;2022-11-04T06:05:28;14.32;;;4.72;;
28166;SDS011;15455;53.376;-6.262;2022-11-04T06:08:14;10.15;;;3.65;;
28166;SDS011;15455;53.376;-6.262;2022-11-04T06:10:59;13.82;;;5.47;;
28166;SDS011;15455;53.376;-6.262;2022-11-04T06:13:45;11.73;;;4.78;;
28166;SDS011;15455;53.376;-6.262;2022-11-04T06:16:31;10.75;;;5.13;;
28166;SDS011;15455;53.376;-6.262;2022-11-04T06:19:16;11.77;;;5.22;;
28166;SDS011;15455;53.376;-6.262;2022-11-04T06:22:01;12.00;;;4.68;;
28166;SDS011;15455;53.376;-6.262;2022-11-04T06:24:48;16.90;;;5.10;;
28166;SDS011;15455;53.376;-6.262;2022-11-04T06:27:34;10.85;;;4.57;;
28166;SDS011;15455;53.376;-6.262;2022-11-04T06:30:19;13.07;;;5.47;;
28166;SDS011;15455;53.376;-6.262;2022-11-04T06:33:05;16.27;;;5.93;;
28166;SDS011;15455;53.376;-6.262;2022-11-04T06:35:50;12.45;;;5.40;;
28166;SDS011;15455;53.376;-6.262;2022-11-04T06:38:36;13.05;;;5.25;;
28166;SDS011;15455;53.376;-6.262;2022-11-04T06:41:22;11.30;;;5.35;;
28166;SDS011;15455;53.376;-6.262;2022-11-04T06:44:08;10.77;;;5.10;;
28166;SDS011;15455;53.376;-6.262;2022-11-04T06:46:53;10.70;;;4.65;;
28166;SDS011;15455;53.376;-6.262;2022-11-04T06:49:38;9.10;;;5.03;;
28166;SDS011;15455;53.376;-6.262;2022-11-04T06:52:24;13.52;;;5.40;;
28166;SDS011;15455;53.376;-6.262;2022-11-04T06:55:10;10.20;;;5.03;;
28166;SDS011;15455;53.376;-6.262;2022-11-04T06:57:55;9.13;;;4.93;;
28166;SDS011;15455;53.376;-6.262;2022-11-04T07:00:41;10.38;;;5.53;;
28166;SDS011;15455;53.376;-6.262;2022-11-04T07:03:26;11.63;;;5.30;;
28166;SDS011;15455;53.376;-6.262;2022-11-04T07:06:12;8.77;;;5.10;;
28166;SDS011;15455;53.376;-6.262;2022-11-04T07:08:58;16.35;;;5.05;;
28166;SDS011;15455;53.376;-6.262;2022-11-04T07:11:45;12.55;;;5.47;;
28166;SDS011;15455;53.376;-6.262;2022-11-04T07:14:31;10.98;;;4.93;;
28166;SDS011;15455;53.376;-6.262;2022-11-04T07:17:16;11.75;;;5.93;;
28166;SDS011;15455;53.376;-6.262;2022-11-04T07:20:02;14.18;;;6.13;;
28166;SDS011;15455;53.376;-6.262;2022-11-04T07:22:49;12.43;;;5.55;;
28166;SDS011;15455;53.376;-6.262;2022-11-04T07:25:37;16.58;;;6.45;;
28166;SDS011;15455;53.376;-6.262;2022-11-04T07:28:23;13.20;;;5.60;;
28166;SDS011;15455;53.376;-6.262;2022-11-04T07:31:09;11.82;;;5.63;;
28166;SDS011;15455;53.376;-6.262;2022-11-04T07:33:56;14.20;;;6.32;;
28166;SDS011;15455;53.376;-6.262;2022-11-04T07:36:42;17.17;;;7.38;;
28166;SDS011;15455;53.376;-6.262;2022-11-04T07:39:27;13.32;;;6.00;;
28166;SDS011;15455;53.376;-6.262;2022-11-04T07:42:12;11.75;;;6.20;;
28166;SDS011;15455;53.376;-6.262;2022-11-04T07:44:58;15.63;;;5.53;;
28166;SDS011;15455;53.376;-6.262;2022-11-04T07:47:43;14.65;;;5.80;;
28166;SDS011;15455;53.376;-6.262;2022-11-04T07:50:29;14.15;;;6.63;;
28166;SDS011;15455;53.376;-6.262;2022-11-04T07:53:14;14.98;;;5.85;;
28166;SDS011;15455;53.376;-6.262;2022-11-04T07:56:04;11.65;;;5.75;;
28166;SDS011;15455;53.376;-6.262;2022-11-04T07:58:51;9.25;;;5.38;;
28166;SDS011;15455;53.376;-6.262;2022-11-04T08:01:37;9.30;;;4.40;;
28166;SDS011;15455;53.376;-6.262;2022-11-04T08:04:22;10.35;;;4.78;;
28166;SDS011;15455;53.376;-6.262;2022-11-04T08:07:08;14.65;;;4.65;;
28166;SDS011;15455;53.376;-6.262;2022-11-04T08:09:54;9.45;;;3.97;;
28166;SDS011;15455;53.376;-6.262;2022-11-04T08:12:39;13.10;;;4.97;;
28166;SDS011;15455;53.376;-6.262;2022-11-04T08:15:25;9.60;;;4.10;;
28166;SDS011;15455;53.376;-6.262;2022-11-04T08:18:10;15.60;;;4.97;;
28166;SDS011;15455;53.376;-6.262;2022-11-04T08:20:56;14.40;;;3.72;;
28166;SDS011;15455;53.376;-6.262;2022-11-04T08:23:41;10.05;;;4.25;;
28166;SDS011;15455;53.376;-6.262;2022-11-04T08:26:28;7.18;;;3.78;;
28166;SDS011;15455;53.376;-6.262;2022-11-04T08:29:13;8.45;;;4.88;;
28166;SDS011;15455;53.376;-6.262;2022-11-04T08:31:59;14.52;;;4.40;;
28166;SDS011;15455;53.376;-6.262;2022-11-04T08:34:44;8.40;;;4.00;;
28166;SDS011;15455;53.376;-6.262;2022-11-04T08:37:30;5.93;;;3.65;;
28166;SDS011;15455;53.376;-6.262;2022-11-04T08:40:15;10.35;;;4.00;;
28166;SDS011;15455;53.376;-6.262;2022-11-04T08:43:01;6.25;;;3.33;;
28166;SDS011;15455;53.376;-6.262;2022-11-04T08:45:46;11.07;;;4.00;;
28166;SDS011;15455;53.376;-6.262;2022-11-04T08:48:36;13.48;;;4.13;;
28166;SDS011;15455;53.376;-6.262;2022-11-04T08:51:23;6.60;;;3.95;;
28166;SDS011;15455;53.376;-6.262;2022-11-04T08:54:10;6.93;;;3.45;;
28166;SDS011;15455;53.376;-6.262;2022-11-04T08:56:56;5.30;;;2.60;;
28166;SDS011;15455;53.376;-6.262;2022-11-04T08:59:41;5.43;;;2.45;;
28166;SDS011;15455;53.376;-6.262;2022-11-04T09:02:27;8.88;;;3.45;;
28166;SDS011;15455;53.376;-6.262;2022-11-04T09:05:12;6.90;;;3.03;;
28166;SDS011;15455;53.376;-6.262;2022-11-04T09:07:59;7.53;;;2.28;;
28166;SDS011;15455;53.376;-6.262;2022-11-04T09:10:46;7.22;;;3.05;;
28166;SDS011;15455;53.376;-6.262;2022-11-04T09:13:32;8.07;;;2.60;;
28166;SDS011;15455;53.376;-6.262;2022-11-04T09:16:23;10.65;;;4.30;;
28166;SDS011;15455;53.376;-6.262;2022-11-04T09:19:09;4.53;;;3.60;;
28166;SDS011;15455;53.376;-6.262;2022-11-04T09:21:55;4.68;;;2.67;;
28166;SDS011;15455;53.376;-6.262;2022-11-04T09:24:40;13.50;;;3.22;;
28166;SDS011;15455;53.376;-6.262;2022-11-04T09:27:25;4.03;;;3.05;;
28166;SDS011;15455;53.376;-6.262;2022-11-04T09:30:11;7.40;;;2.55;;
28166;SDS011;15455;53.376;-6.262;2022-11-04T09:32:57;9.57;;;3.63;;
28166;SDS011;15455;53.376;-6.262;2022-11-04T09:35:43;5.03;;;3.00;;
28166;SDS011;15455;53.376;-6.262;2022-11-04T09:38:28;7.85;;;2.95;;
28166;SDS011;15455;53.376;-6.262;2022-11-04T09:41:24;12.55;;;3.97;;
28166;SDS011;15455;53.376;-6.262;2022-11-04T09:48:01;3.83;;;2.67;;
28166;SDS011;15455;53.376;-6.262;2022-11-04T09:50:51;4.43;;;3.58;;
28166;SDS011;15455;53.376;-6.262;2022-11-04T09:56:32;4.78;;;2.97;;
28166;SDS011;15455;53.376;-6.262;2022-11-04T09:59:26;6.53;;;3.20;;
28166;SDS011;15455;53.376;-6.262;2022-11-04T10:05:17;4.32;;;2.90;;
28166;SDS011;15455;53.376;-6.262;2022-11-04T10:14:35;3.33;;;3.10;;
28166;SDS011;15455;53.376;-6.262;2022-11-04T10:17:50;9.82;;;2.75;;
28166;SDS011;15455;53.376;-6.262;2022-11-04T10:27:16;7.30;;;1.70;;
28166;SDS011;15455;53.376;-6.262;2022-11-04T10:30:27;5.50;;;1.73;;
28166;SDS011;15455;53.376;-6.262;2022-11-04T10:36:12;4.18;;;1.58;;
28166;SDS011;15455;53.376;-6.262;2022-11-04T10:39:02;4.15;;;1.55;;
28166;SDS011;15455;53.376;-6.262;2022-11-04T10:41:57;3.47;;;1.08;;
28166;SDS011;15455;53.376;-6.262;2022-11-04T10:44:44;9.13;;;1.65;;
28166;SDS011;15455;53.376;-6.262;2022-11-04T10:50:50;3.60;;;0.90;;
28166;SDS011;15455;53.376;-6.262;2022-11-04T10:53:38;2.40;;;1.35;;
28166;SDS011;15455;53.376;-6.262;2022-11-04T10:56:28;4.03;;;1.38;;
28166;SDS011;15455;53.376;-6.262;2022-11-04T11:00:10;5.32;;;2.13;;
28166;SDS011;15455;53.376;-6.262;2022-11-04T11:05:36;0.98;;;0.63;;
28166;SDS011;15455;53.376;-6.262;2022-11-04T11:08:28;6.97;;;1.05;;
28166;SDS011;15455;53.376;-6.262;2022-11-04T11:11:35;6.22;;;0.95;;
28166;SDS011;15455;53.376;-6.262;2022-11-04T11:22:59;3.50;;;0.88;;
28166;SDS011;15455;53.376;-6.262;2022-11-04T11:25:49;6.80;;;1.55;;
28166;SDS011;15455;53.376;-6.262;2022-11-04T11:28:35;1.70;;;0.95;;
28166;SDS011;15455;53.376;-6.262;2022-11-04T11:31:22;5.65;;;1.00;;
28166;SDS011;15455;53.376;-6.262;2022-11-04T11:34:15;5.55;;;1.40;;
28166;SDS011;15455;53.376;-6.262;2022-11-04T11:37:12;2.83;;;0.90;;
28166;SDS011;15455;53.376;-6.262;2022-11-04T11:40:21;6.03;;;1.10;;
28166;SDS011;15455;53.376;-6.262;2022-11-04T11:43:18;5.80;;;1.10;;
28166;SDS011;15455;53.376;-6.262;2022-11-04T11:46:10;8.70;;;1.38;;
28166;SDS011;15455;53.376;-6.262;2022-11-04T11:49:00;3.88;;;1.10;;
28166;SDS011;15455;53.376;-6.262;2022-11-04T11:51:47;2.20;;;0.98;;
28166;SDS011;15455;53.376;-6.262;2022-11-04T11:54:35;8.02;;;0.95;;
28166;SDS011;15455;53.376;-6.262;2022-11-04T11:58:09;5.30;;;0.82;;
28166;SDS011;15455;53.376;-6.262;2022-11-04T12:00:58;1.98;;;0.85;;
28166;SDS011;15455;53.376;-6.262;2022-11-04T12:03:55;3.80;;;0.95;;
28166;SDS011;15455;53.376;-6.262;2022-11-04T12:13:43;3.97;;;1.27;;
28166;SDS011;15455;53.376;-6.262;2022-11-04T12:28:54;3.45;;;0.65;;
28166;SDS011;15455;53.376;-6.262;2022-11-04T12:31:47;2.78;;;0.77;;
28166;SDS011;15455;53.376;-6.262;2022-11-04T12:44:27;3.10;;;0.75;;
28166;SDS011;15455;53.376;-6.262;2022-11-04T12:47:34;4.47;;;1.00;;
28166;SDS011;15455;53.376;-6.262;2022-11-04T12:56:45;4.30;;;1.23;;
28166;SDS011;15455;53.376;-6.262;2022-11-04T13:02:37;1.15;;;0.70;;
28166;SDS011;15455;53.376;-6.262;2022-11-04T13:14:32;2.13;;;0.77;;
28166;SDS011;15455;53.376;-6.262;2022-11-04T13:20:32;8.25;;;0.90;;
28166;SDS011;15455;53.376;-6.262;2022-11-04T13:23:35;5.15;;;0.80;;
28166;SDS011;15455;53.376;-6.262;2022-11-04T13:26:25;0.85;;;0.60;;
28166;SDS011;15455;53.376;-6.262;2022-11-04T13:29:13;3.88;;;0.65;;
28166;SDS011;15455;53.376;-6.262;2022-11-04T13:38:20;4.00;;;0.80;;
28166;SDS011;15455;53.376;-6.262;2022-11-04T13:45:07;3.65;;;0.80;;
28166;SDS011;15455;53.376;-6.262;2022-11-04T13:47:36;1.52;;;0.73;;
28166;SDS011;15455;53.376;-6.262;2022-11-04T13:50:38;6.07;;;0.80;;
28166;SDS011;15455;53.376;-6.262;2022-11-04T13:56:36;3.33;;;0.63;;
28166;SDS011;15455;53.376;-6.262;2022-11-04T13:59:26;7.78;;;0.85;;
28166;SDS011;15455;53.376;-6.262;2022-11-04T14:04:58;1.33;;;0.75;;
28166;SDS011;15455;53.376;-6.262;2022-11-04T14:08:14;1.00;;;0.63;;
28166;SDS011;15455;53.376;-6.262;2022-11-04T14:11:01;4.72;;;0.95;;
28166;SDS011;15455;53.376;-6.262;2022-11-04T14:14:00;1.92;;;0.70;;
28166;SDS011;15455;53.376;-6.262;2022-11-04T14:16:47;2.80;;;0.85;;
28166;SDS011;15455;53.376;-6.262;2022-11-04T14:19:46;7.40;;;0.80;;
28166;SDS011;15455;53.376;-6.262;2022-11-04T14:25:34;4.10;;;0.75;;
28166;SDS011;15455;53.376;-6.262;2022-11-04T14:28:25;2.33;;;0.82;;
28166;SDS011;15455;53.376;-6.262;2022-11-04T14:31:13;2.95;;;0.90;;
28166;SDS011;15455;53.376;-6.262;2022-11-04T14:34:27;3.40;;;1.55;;
28166;SDS011;15455;53.376;-6.262;2022-11-04T14:37:20;6.90;;;0.50;;
28166;SDS011;15455;53.376;-6.262;2022-11-04T14:40:14;6.28;;;0.85;;
28166;SDS011;15455;53.376;-6.262;2022-11-04T14:43:16;2.95;;;0.95;;
28166;SDS011;15455;53.376;-6.262;2022-11-04T14:46:30;3.67;;;0.90;;
28166;SDS011;15455;53.376;-6.262;2022-11-04T14:52:18;7.43;;;1.63;;
28166;SDS011;15455;53.376;-6.262;2022-11-04T14:57:59;3.07;;;1.00;;
28166;SDS011;15455;53.376;-6.262;2022-11-04T15:01:15;1.50;;;1.00;;
28166;SDS011;15455;53.376;-6.262;2022-11-04T15:04:06;4.78;;;1.45;;
28166;SDS011;15455;53.376;-6.262;2022-11-04T15:06:59;5.72;;;1.15;;
28166;SDS011;15455;53.376;-6.262;2022-11-04T15:09:47;6.05;;;0.98;;
28166;SDS011;15455;53.376;-6.262;2022-11-04T15:12:34;2.28;;;1.23;;
28166;SDS011;15455;53.376;-6.262;2022-11-04T15:15:36;3.20;;;1.27;;
28166;SDS011;15455;53.376;-6.262;2022-11-04T15:18:25;5.63;;;1.02;;
28166;SDS011;15455;53.376;-6.262;2022-11-04T15:21:13;2.65;;;1.13;;
28166;SDS011;15455;53.376;-6.262;2022-11-04T15:23:59;5.13;;;1.52;;
28166;SDS011;15455;53.376;-6.262;2022-11-04T15:26:49;2.78;;;1.42;;
28166;SDS011;15455;53.376;-6.262;2022-11-04T15:29:37;4.57;;;1.38;;
28166;SDS011;15455;53.376;-6.262;2022-11-04T15:32:23;5.95;;;1.40;;
28166;SDS011;15455;53.376;-6.262;2022-11-04T15:35:10;3.80;;;1.23;;
28166;SDS011;15455;53.376;-6.262;2022-11-04T15:37:58;5.45;;;1.42;;
28166;SDS011;15455;53.376;-6.262;2022-11-04T15:40:45;2.60;;;1.23;;
28166;SDS011;15455;53.376;-6.262;2022-11-04T15:43:31;7.25;;;1.35;;
28166;SDS011;15455;53.376;-6.262;2022-11-04T15:46:17;4.28;;;1.60;;
28166;SDS011;15455;53.376;-6.262;2022-11-04T15:49:05;3.72;;;1.20;;
28166;SDS011;15455;53.376;-6.262;2022-11-04T15:51:52;5.82;;;1.35;;
28166;SDS011;15455;53.376;-6.262;2022-11-04T15:54:43;2.57;;;1.17;;
28166;SDS011;15455;53.376;-6.262;2022-11-04T15:57:42;10.00;;;1.05;;
28166;SDS011;15455;53.376;-6.262;2022-11-04T16:00:28;2.90;;;1.08;;
28166;SDS011;15455;53.376;-6.262;2022-11-04T16:03:16;11.23;;;0.95;;
28166;SDS011;15455;53.376;-6.262;2022-11-04T16:06:04;4.15;;;1.10;;
28166;SDS011;15455;53.376;-6.262;2022-11-04T16:09:03;5.10;;;1.48;;
28166;SDS011;15455;53.376;-6.262;2022-11-04T16:12:16;12.20;;;1.50;;
28166;SDS011;15455;53.376;-6.262;2022-11-04T16:18:22;3.67;;;1.02;;
28166;SDS011;15455;53.376;-6.262;2022-11-04T16:21:10;8.13;;;1.23;;
28166;SDS011;15455;53.376;-6.262;2022-11-04T16:24:14;4.63;;;0.98;;
28166;SDS011;15455;53.376;-6.262;2022-11-04T16:27:12;2.72;;;0.90;;
28166;SDS011;15455;53.376;-6.262;2022-11-04T16:30:17;5.43;;;1.63;;
28166;SDS011;15455;53.376;-6.262;2022-11-04T16:33:09;5.75;;;1.80;;
28166;SDS011;15455;53.376;-6.262;2022-11-04T16:35:56;4.85;;;2.15;;
28166;SDS011;15455;53.376;-6.262;2022-11-04T16:38:41;4.00;;;1.77;;
28166;SDS011;15455;53.376;-6.262;2022-11-04T16:41:27;5.00;;;1.65;;
28166;SDS011;15455;53.376;-6.262;2022-11-04T16:44:17;6.72;;;1.48;;
28166;SDS011;15455;53.376;-6.262;2022-11-04T16:47:04;7.20;;;1.88;;
28166;SDS011;15455;53.376;-6.262;2022-11-04T16:49:50;3.72;;;1.40;;
28166;SDS011;15455;53.376;-6.262;2022-11-04T16:52:36;5.72;;;2.28;;
28166;SDS011;15455;53.376;-6.262;2022-11-04T16:55:28;6.47;;;2.67;;
28166;SDS011;15455;53.376;-6.262;2022-11-04T16:58:15;5.45;;;2.10;;
28166;SDS011;15455;53.376;-6.262;2022-11-04T17:01:02;4.45;;;2.30;;
28166;SDS011;15455;53.376;-6.262;2022-11-04T17:03:50;7.57;;;2.55;;
28166;SDS011;15455;53.376;-6.262;2022-11-04T17:06:35;9.38;;;2.17;;
28166;SDS011;15455;53.376;-6.262;2022-11-04T17:09:22;7.50;;;3.10;;
28166;SDS011;15455;53.376;-6.262;2022-11-04T17:12:08;12.55;;;3.58;;
28166;SDS011;15455;53.376;-6.262;2022-11-04T17:14:54;7.35;;;2.10;;
28166;SDS011;15455;53.376;-6.262;2022-11-04T17:17:40;7.35;;;2.13;;
28166;SDS011;15455;53.376;-6.262;2022-11-04T17:20:25;4.65;;;2.22;;
28166;SDS011;15455;53.376;-6.262;2022-11-04T17:23:12;4.65;;;2.35;;
28166;SDS011;15455;53.376;-6.262;2022-11-04T17:25:59;7.40;;;2.28;;
28166;SDS011;15455;53.376;-6.262;2022-11-04T17:28:45;5.57;;;2.75;;
28166;SDS011;15455;53.376;-6.262;2022-11-04T17:31:30;5.00;;;2.78;;
28166;SDS011;15455;53.376;-6.262;2022-11-04T17:34:16;6.78;;;2.25;;
28166;SDS011;15455;53.376;-6.262;2022-11-04T17:37:01;6.93;;;2.47;;
28166;SDS011;15455;53.376;-6.262;2022-11-04T17:39:47;10.88;;;3.03;;
28166;SDS011;15455;53.376;-6.262;2022-11-04T17:42:32;8.65;;;3.03;;
28166;SDS011;15455;53.376;-6.262;2022-11-04T17:45:36;7.80;;;3.58;;
28166;SDS011;15455;53.376;-6.262;2022-11-04T17:48:22;11.85;;;4.07;;
28166;SDS011;15455;53.376;-6.262;2022-11-04T17:51:08;8.85;;;3.40;;
28166;SDS011;15455;53.376;-6.262;2022-11-04T17:53:53;8.60;;;3.10;;
28166;SDS011;15455;53.376;-6.262;2022-11-04T17:56:40;6.65;;;3.45;;
28166;SDS011;15455;53.376;-6.262;2022-11-04T17:59:26;7.35;;;3.10;;
28166;SDS011;15455;53.376;-6.262;2022-11-04T18:02:17;8.18;;;2.65;;
28166;SDS011;15455;53.376;-6.262;2022-11-04T18:05:03;8.75;;;2.78;;
28166;SDS011;15455;53.376;-6.262;2022-11-04T18:07:49;6.30;;;2.88;;
28166;SDS011;15455;53.376;-6.262;2022-11-04T18:10:37;13.98;;;3.15;;
28166;SDS011;15455;53.376;-6.262;2022-11-04T18:13:23;7.53;;;2.83;;
28166;SDS011;15455;53.376;-6.262;2022-11-04T18:16:12;8.15;;;2.90;;
28166;SDS011;15455;53.376;-6.262;2022-11-04T18:18:58;8.98;;;3.35;;
28166;SDS011;15455;53.376;-6.262;2022-11-04T18:21:44;6.88;;;3.50;;
28166;SDS011;15455;53.376;-6.262;2022-11-04T18:24:31;5.82;;;2.60;;
28166;SDS011;15455;53.376;-6.262;2022-11-04T18:27:17;8.63;;;2.92;;
28166;SDS011;15455;53.376;-6.262;2022-11-04T18:30:02;6.50;;;3.45;;
28166;SDS011;15455;53.376;-6.262;2022-11-04T18:32:48;5.07;;;2.97;;
28166;SDS011;15455;53.376;-6.262;2022-11-04T18:35:34;7.13;;;2.92;;
28166;SDS011;15455;53.376;-6.262;2022-11-04T18:38:19;11.30;;;2.92;;
28166;SDS011;15455;53.376;-6.262;2022-11-04T18:41:05;6.35;;;2.88;;
28166;SDS011;15455;53.376;-6.262;2022-11-04T18:43:50;7.68;;;3.53;;
28166;SDS011;15455;53.376;-6.262;2022-11-04T18:46:36;10.18;;;4.10;;
28166;SDS011;15455;53.376;-6.262;2022-11-04T18:49:22;6.70;;;2.78;;
28166;SDS011;15455;53.376;-6.262;2022-11-04T18:52:07;9.48;;;3.13;;
28166;SDS011;15455;53.376;-6.262;2022-11-04T18:54:52;4.85;;;2.53;;
28166;SDS011;15455;53.376;-6.262;2022-11-04T18:57:38;9.27;;;3.53;;
28166;SDS011;15455;53.376;-6.262;2022-11-04T19:00:23;12.45;;;5.63;;
28166;SDS011;15455;53.376;-6.262;2022-11-04T19:03:09;10.70;;;4.03;;
28166;SDS011;15455;53.376;-6.262;2022-11-04T19:05:55;8.27;;;4.10;;
28166;SDS011;15455;53.376;-6.262;2022-11-04T19:08:41;9.50;;;4.40;;
28166;SDS011;15455;53.376;-6.262;2022-11-04T19:11:32;9.50;;;3.90;;